sensor_id;sensor_type;location;lat;lon;timestamp;P1;durP1;ratioP1;P2;durP2;ratioP2
41305;SDS011;27051;50.376;19.152;2022-07-09T00:00:20;8.08;;;3.05;;
41305;SDS011;27051;50.376;19.152;2022-07-09T00:02:48;6.50;;;2.33;;
41305;SDS011;27051;50.376;19.152;2022-07-09T00:05:15;14.47;;;3.55;;
41305;SDS011;27051;50.376;19.152;2022-07-09T00:07:42;8.03;;;2.90;;
41305;SDS011;27051;50.376;19.152;2022-07-09T00:10:08;8.68;;;3.67;;
41305;SDS011;27051;50.376;19.152;2022-07-09T00:12:35;7.47;;;3.10;;
41305;SDS011;27051;50.376;19.152;2022-07-09T00:15:02;9.83;;;2.95;;
41305;SDS011;27051;50.376;19.152;2022-07-09T00:17:30;8.13;;;3.00;;
41305;SDS011;27051;50.376;19.152;2022-07-09T00:19:57;7.95;;;2.90;;
41305;SDS011;27051;50.376;19.152;2022-07-09T00:22:24;8.85;;;2.90;;
41305;SDS011;27051;50.376;19.152;2022-07-09T00:24:51;8.93;;;3.30;;
41305;SDS011;27051;50.376;19.152;2022-07-09T00:27:17;7.80;;;3.12;;
41305;SDS011;27051;50.376;19.152;2022-07-09T00:29:44;10.48;;;3.58;;
41305;SDS011;27051;50.376;19.152;2022-07-09T00:32:10;8.43;;;3.47;;
41305;SDS011;27051;50.376;19.152;2022-07-09T00:34:37;8.75;;;3.05;;
41305;SDS011;27051;50.376;19.152;2022-07-09T00:37:04;13.28;;;3.12;;
41305;SDS011;27051;50.376;19.152;2022-07-09T00:39:31;8.23;;;2.80;;
41305;SDS011;27051;50.376;19.152;2022-07-09T00:42:05;8.30;;;3.00;;
41305;SDS011;27051;50.376;19.152;2022-07-09T00:44:32;5.35;;;2.35;;
41305;SDS011;27051;50.376;19.152;2022-07-09T00:47:00;10.30;;;3.17;;
41305;SDS011;27051;50.376;19.152;2022-07-09T00:49:29;8.50;;;3.20;;
41305;SDS011;27051;50.376;19.152;2022-07-09T00:51:56;5.30;;;2.80;;
41305;SDS011;27051;50.376;19.152;2022-07-09T00:54:24;11.43;;;3.10;;
41305;SDS011;27051;50.376;19.152;2022-07-09T00:56:51;8.48;;;3.50;;
41305;SDS011;27051;50.376;19.152;2022-07-09T00:59:19;11.05;;;3.05;;
41305;SDS011;27051;50.376;19.152;2022-07-09T01:01:50;7.53;;;3.60;;
41305;SDS011;27051;50.376;19.152;2022-07-09T01:04:18;11.18;;;3.35;;
41305;SDS011;27051;50.376;19.152;2022-07-09T01:06:45;10.10;;;3.08;;
41305;SDS011;27051;50.376;19.152;2022-07-09T01:09:11;8.00;;;2.80;;
41305;SDS011;27051;50.376;19.152;2022-07-09T01:11:38;8.80;;;2.98;;
41305;SDS011;27051;50.376;19.152;2022-07-09T01:14:05;8.73;;;2.95;;
41305;SDS011;27051;50.376;19.152;2022-07-09T01:16:32;12.63;;;2.75;;
41305;SDS011;27051;50.376;19.152;2022-07-09T01:19:02;7.92;;;3.52;;
41305;SDS011;27051;50.376;19.152;2022-07-09T01:21:30;10.25;;;3.08;;
41305;SDS011;27051;50.376;19.152;2022-07-09T01:23:58;6.97;;;3.17;;
41305;SDS011;27051;50.376;19.152;2022-07-09T01:26:25;10.93;;;3.25;;
41305;SDS011;27051;50.376;19.152;2022-07-09T01:28:53;6.55;;;2.83;;
41305;SDS011;27051;50.376;19.152;2022-07-09T01:31:20;8.03;;;2.72;;
41305;SDS011;27051;50.376;19.152;2022-07-09T01:33:47;10.40;;;2.87;;
41305;SDS011;27051;50.376;19.152;2022-07-09T01:36:13;11.05;;;3.37;;
41305;SDS011;27051;50.376;19.152;2022-07-09T01:38:41;7.67;;;3.10;;
41305;SDS011;27051;50.376;19.152;2022-07-09T01:41:07;7.25;;;3.05;;
41305;SDS011;27051;50.376;19.152;2022-07-09T01:43:34;9.05;;;2.85;;
41305;SDS011;27051;50.376;19.152;2022-07-09T01:46:00;8.40;;;2.80;;
41305;SDS011;27051;50.376;19.152;2022-07-09T01:48:27;7.58;;;2.58;;
41305;SDS011;27051;50.376;19.152;2022-07-09T01:50:54;11.83;;;2.85;;
41305;SDS011;27051;50.376;19.152;2022-07-09T01:53:21;6.60;;;2.85;;
41305;SDS011;27051;50.376;19.152;2022-07-09T01:55:48;10.10;;;2.80;;
41305;SDS011;27051;50.376;19.152;2022-07-09T01:58:15;10.38;;;3.15;;
41305;SDS011;27051;50.376;19.152;2022-07-09T02:00:41;6.45;;;3.10;;
41305;SDS011;27051;50.376;19.152;2022-07-09T02:03:08;9.93;;;3.98;;
41305;SDS011;27051;50.376;19.152;2022-07-09T02:05:35;9.03;;;3.12;;
41305;SDS011;27051;50.376;19.152;2022-07-09T02:08:02;8.45;;;3.17;;
41305;SDS011;27051;50.376;19.152;2022-07-09T02:10:30;10.72;;;3.33;;
41305;SDS011;27051;50.376;19.152;2022-07-09T02:12:56;6.05;;;2.98;;
41305;SDS011;27051;50.376;19.152;2022-07-09T02:15:24;10.90;;;3.37;;
41305;SDS011;27051;50.376;19.152;2022-07-09T02:17:50;13.65;;;3.22;;
41305;SDS011;27051;50.376;19.152;2022-07-09T02:20:17;9.43;;;3.33;;
41305;SDS011;27051;50.376;19.152;2022-07-09T02:22:43;7.42;;;2.80;;
41305;SDS011;27051;50.376;19.152;2022-07-09T02:25:10;8.53;;;2.90;;
41305;SDS011;27051;50.376;19.152;2022-07-09T02:27:37;8.63;;;2.92;;
41305;SDS011;27051;50.376;19.152;2022-07-09T02:30:04;9.03;;;3.47;;
41305;SDS011;27051;50.376;19.152;2022-07-09T02:32:33;10.88;;;3.08;;
41305;SDS011;27051;50.376;19.152;2022-07-09T02:34:59;7.20;;;2.92;;
41305;SDS011;27051;50.376;19.152;2022-07-09T02:37:26;9.60;;;3.62;;
41305;SDS011;27051;50.376;19.152;2022-07-09T02:39:53;7.97;;;3.30;;
41305;SDS011;27051;50.376;19.152;2022-07-09T02:42:19;8.68;;;3.30;;
41305;SDS011;27051;50.376;19.152;2022-07-09T02:44:46;8.65;;;3.30;;
41305;SDS011;27051;50.376;19.152;2022-07-09T02:47:13;11.43;;;3.30;;
41305;SDS011;27051;50.376;19.152;2022-07-09T02:49:40;6.03;;;2.87;;
41305;SDS011;27051;50.376;19.152;2022-07-09T02:52:06;7.60;;;3.17;;
41305;SDS011;27051;50.376;19.152;2022-07-09T02:54:33;13.68;;;3.45;;
41305;SDS011;27051;50.376;19.152;2022-07-09T02:57:00;10.45;;;3.55;;
41305;SDS011;27051;50.376;19.152;2022-07-09T02:59:27;12.50;;;4.28;;
41305;SDS011;27051;50.376;19.152;2022-07-09T03:01:53;11.40;;;3.47;;
41305;SDS011;27051;50.376;19.152;2022-07-09T03:04:20;10.30;;;3.52;;
41305;SDS011;27051;50.376;19.152;2022-07-09T03:06:46;15.03;;;3.40;;
41305;SDS011;27051;50.376;19.152;2022-07-09T03:09:14;9.73;;;3.42;;
41305;SDS011;27051;50.376;19.152;2022-07-09T03:11:41;8.25;;;3.30;;
41305;SDS011;27051;50.376;19.152;2022-07-09T03:14:07;11.35;;;3.40;;
41305;SDS011;27051;50.376;19.152;2022-07-09T03:16:34;12.53;;;3.60;;
41305;SDS011;27051;50.376;19.152;2022-07-09T03:19:01;11.28;;;3.20;;
41305;SDS011;27051;50.376;19.152;2022-07-09T03:21:27;9.73;;;3.80;;
41305;SDS011;27051;50.376;19.152;2022-07-09T03:23:54;8.33;;;3.30;;
41305;SDS011;27051;50.376;19.152;2022-07-09T03:26:20;10.70;;;4.00;;
41305;SDS011;27051;50.376;19.152;2022-07-09T03:28:47;10.23;;;3.00;;
41305;SDS011;27051;50.376;19.152;2022-07-09T03:31:14;7.08;;;3.62;;
41305;SDS011;27051;50.376;19.152;2022-07-09T03:33:40;8.88;;;2.87;;
41305;SDS011;27051;50.376;19.152;2022-07-09T03:36:07;8.80;;;3.22;;
41305;SDS011;27051;50.376;19.152;2022-07-09T03:38:34;9.40;;;2.70;;
41305;SDS011;27051;50.376;19.152;2022-07-09T03:41:00;6.22;;;3.05;;
41305;SDS011;27051;50.376;19.152;2022-07-09T03:43:27;9.15;;;3.55;;
41305;SDS011;27051;50.376;19.152;2022-07-09T03:45:54;4.97;;;2.67;;
41305;SDS011;27051;50.376;19.152;2022-07-09T03:48:21;12.55;;;3.35;;
41305;SDS011;27051;50.376;19.152;2022-07-09T03:50:47;6.90;;;2.80;;
41305;SDS011;27051;50.376;19.152;2022-07-09T03:53:14;7.37;;;2.80;;
41305;SDS011;27051;50.376;19.152;2022-07-09T03:55:40;11.43;;;3.22;;
41305;SDS011;27051;50.376;19.152;2022-07-09T03:58:07;7.50;;;2.72;;
41305;SDS011;27051;50.376;19.152;2022-07-09T04:00:34;8.28;;;2.45;;
41305;SDS011;27051;50.376;19.152;2022-07-09T04:03:00;7.28;;;2.67;;
41305;SDS011;27051;50.376;19.152;2022-07-09T04:05:27;6.80;;;3.22;;
41305;SDS011;27051;50.376;19.152;2022-07-09T04:07:54;12.03;;;2.80;;
41305;SDS011;27051;50.376;19.152;2022-07-09T04:10:20;8.10;;;2.55;;
41305;SDS011;27051;50.376;19.152;2022-07-09T04:12:47;12.58;;;3.27;;
41305;SDS011;27051;50.376;19.152;2022-07-09T04:15:14;4.37;;;2.37;;
41305;SDS011;27051;50.376;19.152;2022-07-09T04:17:40;10.55;;;2.90;;
41305;SDS011;27051;50.376;19.152;2022-07-09T04:20:08;8.60;;;2.80;;
41305;SDS011;27051;50.376;19.152;2022-07-09T04:22:37;6.33;;;3.00;;
41305;SDS011;27051;50.376;19.152;2022-07-09T04:25:04;8.83;;;2.72;;
41305;SDS011;27051;50.376;19.152;2022-07-09T04:27:33;7.15;;;3.10;;
41305;SDS011;27051;50.376;19.152;2022-07-09T04:30:00;4.80;;;2.75;;
41305;SDS011;27051;50.376;19.152;2022-07-09T04:32:26;7.90;;;3.25;;
41305;SDS011;27051;50.376;19.152;2022-07-09T04:34:53;8.75;;;2.77;;
41305;SDS011;27051;50.376;19.152;2022-07-09T04:37:19;8.53;;;3.22;;
41305;SDS011;27051;50.376;19.152;2022-07-09T04:39:46;7.47;;;3.02;;
41305;SDS011;27051;50.376;19.152;2022-07-09T04:42:12;11.30;;;2.62;;
41305;SDS011;27051;50.376;19.152;2022-07-09T04:44:39;6.08;;;2.60;;
41305;SDS011;27051;50.376;19.152;2022-07-09T04:47:06;8.43;;;2.85;;
41305;SDS011;27051;50.376;19.152;2022-07-09T04:49:33;6.75;;;2.62;;
41305;SDS011;27051;50.376;19.152;2022-07-09T04:51:59;8.90;;;2.33;;
41305;SDS011;27051;50.376;19.152;2022-07-09T04:54:26;8.13;;;3.12;;
41305;SDS011;27051;50.376;19.152;2022-07-09T04:56:52;7.62;;;2.58;;
41305;SDS011;27051;50.376;19.152;2022-07-09T04:59:19;11.12;;;2.85;;
41305;SDS011;27051;50.376;19.152;2022-07-09T05:01:46;11.08;;;2.50;;
41305;SDS011;27051;50.376;19.152;2022-07-09T05:04:12;8.50;;;2.70;;
41305;SDS011;27051;50.376;19.152;2022-07-09T05:06:39;10.58;;;2.98;;
41305;SDS011;27051;50.376;19.152;2022-07-09T05:09:06;6.30;;;2.72;;
41305;SDS011;27051;50.376;19.152;2022-07-09T05:11:32;8.13;;;2.95;;
41305;SDS011;27051;50.376;19.152;2022-07-09T05:13:59;12.45;;;2.62;;
41305;SDS011;27051;50.376;19.152;2022-07-09T05:16:25;6.55;;;2.47;;
41305;SDS011;27051;50.376;19.152;2022-07-09T05:18:52;9.00;;;2.80;;
41305;SDS011;27051;50.376;19.152;2022-07-09T05:21:19;10.10;;;3.10;;
41305;SDS011;27051;50.376;19.152;2022-07-09T05:23:46;8.90;;;2.87;;
41305;SDS011;27051;50.376;19.152;2022-07-09T05:26:13;13.05;;;3.12;;
41305;SDS011;27051;50.376;19.152;2022-07-09T05:28:39;11.63;;;3.08;;
41305;SDS011;27051;50.376;19.152;2022-07-09T05:31:06;7.30;;;2.80;;
41305;SDS011;27051;50.376;19.152;2022-07-09T05:33:33;9.30;;;2.55;;
41305;SDS011;27051;50.376;19.152;2022-07-09T05:35:59;8.83;;;3.17;;
41305;SDS011;27051;50.376;19.152;2022-07-09T05:38:26;11.43;;;3.42;;
41305;SDS011;27051;50.376;19.152;2022-07-09T05:40:52;9.78;;;2.90;;
41305;SDS011;27051;50.376;19.152;2022-07-09T05:43:19;9.33;;;2.60;;
41305;SDS011;27051;50.376;19.152;2022-07-09T05:45:45;13.15;;;4.10;;
41305;SDS011;27051;50.376;19.152;2022-07-09T05:48:12;15.88;;;3.90;;
41305;SDS011;27051;50.376;19.152;2022-07-09T05:50:39;9.23;;;3.98;;
41305;SDS011;27051;50.376;19.152;2022-07-09T05:53:05;13.10;;;3.30;;
41305;SDS011;27051;50.376;19.152;2022-07-09T05:55:32;10.45;;;3.40;;
41305;SDS011;27051;50.376;19.152;2022-07-09T05:57:58;13.28;;;3.52;;
41305;SDS011;27051;50.376;19.152;2022-07-09T06:00:25;9.90;;;3.35;;
41305;SDS011;27051;50.376;19.152;2022-07-09T06:02:51;9.68;;;2.92;;
41305;SDS011;27051;50.376;19.152;2022-07-09T06:05:18;10.30;;;3.20;;
41305;SDS011;27051;50.376;19.152;2022-07-09T06:07:45;10.13;;;3.22;;
41305;SDS011;27051;50.376;19.152;2022-07-09T06:10:13;8.18;;;3.35;;
41305;SDS011;27051;50.376;19.152;2022-07-09T06:12:39;8.18;;;2.80;;
41305;SDS011;27051;50.376;19.152;2022-07-09T06:15:07;8.48;;;2.70;;
41305;SDS011;27051;50.376;19.152;2022-07-09T06:17:36;7.50;;;2.50;;
41305;SDS011;27051;50.376;19.152;2022-07-09T06:20:04;8.95;;;3.08;;
41305;SDS011;27051;50.376;19.152;2022-07-09T06:22:33;10.30;;;3.02;;
41305;SDS011;27051;50.376;19.152;2022-07-09T06:25:00;8.28;;;2.87;;
41305;SDS011;27051;50.376;19.152;2022-07-09T06:27:27;4.85;;;2.50;;
41305;SDS011;27051;50.376;19.152;2022-07-09T06:29:54;11.35;;;2.67;;
41305;SDS011;27051;50.376;19.152;2022-07-09T06:32:21;6.90;;;2.67;;
41305;SDS011;27051;50.376;19.152;2022-07-09T06:34:48;7.17;;;2.92;;
41305;SDS011;27051;50.376;19.152;2022-07-09T06:37:14;6.70;;;2.52;;
41305;SDS011;27051;50.376;19.152;2022-07-09T06:39:41;7.62;;;2.80;;
41305;SDS011;27051;50.376;19.152;2022-07-09T06:42:08;6.65;;;2.80;;
41305;SDS011;27051;50.376;19.152;2022-07-09T06:44:34;8.18;;;2.37;;
41305;SDS011;27051;50.376;19.152;2022-07-09T06:47:01;8.63;;;2.92;;
41305;SDS011;27051;50.376;19.152;2022-07-09T06:49:30;7.80;;;2.75;;
41305;SDS011;27051;50.376;19.152;2022-07-09T06:51:58;7.60;;;2.25;;
41305;SDS011;27051;50.376;19.152;2022-07-09T06:54:25;9.40;;;2.60;;
41305;SDS011;27051;50.376;19.152;2022-07-09T06:56:52;4.35;;;2.00;;
41305;SDS011;27051;50.376;19.152;2022-07-09T06:59:18;9.15;;;2.60;;
41305;SDS011;27051;50.376;19.152;2022-07-09T07:01:45;8.70;;;2.02;;
41305;SDS011;27051;50.376;19.152;2022-07-09T07:04:12;9.05;;;2.75;;
41305;SDS011;27051;50.376;19.152;2022-07-09T07:06:38;4.67;;;2.60;;
41305;SDS011;27051;50.376;19.152;2022-07-09T07:09:05;8.25;;;2.47;;
41305;SDS011;27051;50.376;19.152;2022-07-09T07:11:32;12.23;;;3.15;;
41305;SDS011;27051;50.376;19.152;2022-07-09T07:13:59;9.85;;;2.92;;
41305;SDS011;27051;50.376;19.152;2022-07-09T07:16:26;6.50;;;2.85;;
41305;SDS011;27051;50.376;19.152;2022-07-09T07:18:53;8.70;;;2.80;;
41305;SDS011;27051;50.376;19.152;2022-07-09T07:21:19;5.85;;;2.50;;
41305;SDS011;27051;50.376;19.152;2022-07-09T07:23:46;6.20;;;2.92;;
41305;SDS011;27051;50.376;19.152;2022-07-09T07:26:13;4.65;;;2.40;;
41305;SDS011;27051;50.376;19.152;2022-07-09T07:28:39;4.22;;;2.33;;
41305;SDS011;27051;50.376;19.152;2022-07-09T07:31:06;4.75;;;2.17;;
41305;SDS011;27051;50.376;19.152;2022-07-09T07:33:32;6.80;;;3.02;;
41305;SDS011;27051;50.376;19.152;2022-07-09T07:35:59;7.67;;;3.35;;
41305;SDS011;27051;50.376;19.152;2022-07-09T07:38:26;6.37;;;2.92;;
41305;SDS011;27051;50.376;19.152;2022-07-09T07:40:53;6.22;;;3.00;;
41305;SDS011;27051;50.376;19.152;2022-07-09T07:43:20;8.83;;;2.87;;
41305;SDS011;27051;50.376;19.152;2022-07-09T07:45:47;7.37;;;2.95;;
41305;SDS011;27051;50.376;19.152;2022-07-09T07:48:14;9.88;;;3.40;;
41305;SDS011;27051;50.376;19.152;2022-07-09T07:50:40;4.92;;;2.77;;
41305;SDS011;27051;50.376;19.152;2022-07-09T07:53:07;8.70;;;3.20;;
41305;SDS011;27051;50.376;19.152;2022-07-09T07:55:34;4.87;;;3.00;;
41305;SDS011;27051;50.376;19.152;2022-07-09T07:58:01;7.22;;;3.50;;
41305;SDS011;27051;50.376;19.152;2022-07-09T08:00:28;7.60;;;2.90;;
41305;SDS011;27051;50.376;19.152;2022-07-09T08:02:54;7.60;;;3.65;;
41305;SDS011;27051;50.376;19.152;2022-07-09T08:05:21;12.80;;;3.83;;
41305;SDS011;27051;50.376;19.152;2022-07-09T08:07:48;6.80;;;3.60;;
41305;SDS011;27051;50.376;19.152;2022-07-09T08:10:14;7.28;;;3.25;;
41305;SDS011;27051;50.376;19.152;2022-07-09T08:12:41;8.75;;;3.12;;
41305;SDS011;27051;50.376;19.152;2022-07-09T08:15:08;8.18;;;3.67;;
41305;SDS011;27051;50.376;19.152;2022-07-09T08:17:36;10.15;;;4.22;;
41305;SDS011;27051;50.376;19.152;2022-07-09T08:20:04;9.13;;;4.22;;
41305;SDS011;27051;50.376;19.152;2022-07-09T08:22:33;8.90;;;4.33;;
41305;SDS011;27051;50.376;19.152;2022-07-09T08:25:00;10.90;;;5.30;;
41305;SDS011;27051;50.376;19.152;2022-07-09T08:27:26;12.90;;;6.08;;
41305;SDS011;27051;50.376;19.152;2022-07-09T08:29:53;14.78;;;6.87;;
41305;SDS011;27051;50.376;19.152;2022-07-09T08:32:19;11.25;;;5.87;;
41305;SDS011;27051;50.376;19.152;2022-07-09T08:34:46;12.40;;;6.00;;
41305;SDS011;27051;50.376;19.152;2022-07-09T08:37:13;13.05;;;5.83;;
41305;SDS011;27051;50.376;19.152;2022-07-09T08:39:39;14.18;;;6.47;;
41305;SDS011;27051;50.376;19.152;2022-07-09T08:42:09;11.03;;;5.90;;
41305;SDS011;27051;50.376;19.152;2022-07-09T08:44:40;11.35;;;5.67;;
41305;SDS011;27051;50.376;19.152;2022-07-09T08:47:12;9.35;;;4.80;;
41305;SDS011;27051;50.376;19.152;2022-07-09T08:49:42;10.90;;;5.03;;
41305;SDS011;27051;50.376;19.152;2022-07-09T08:52:11;10.80;;;6.42;;
41305;SDS011;27051;50.376;19.152;2022-07-09T08:54:39;12.13;;;6.65;;
41305;SDS011;27051;50.376;19.152;2022-07-09T08:57:28;11.55;;;5.80;;
41305;SDS011;27051;50.376;19.152;2022-07-09T08:59:55;10.98;;;4.95;;
41305;SDS011;27051;50.376;19.152;2022-07-09T09:02:22;7.03;;;4.35;;
41305;SDS011;27051;50.376;19.152;2022-07-09T09:04:48;11.18;;;4.85;;
41305;SDS011;27051;50.376;19.152;2022-07-09T09:07:15;6.25;;;3.87;;
41305;SDS011;27051;50.376;19.152;2022-07-09T09:09:45;8.48;;;3.80;;
41305;SDS011;27051;50.376;19.152;2022-07-09T09:12:12;8.00;;;3.12;;
41305;SDS011;27051;50.376;19.152;2022-07-09T09:14:39;7.37;;;3.17;;
41305;SDS011;27051;50.376;19.152;2022-07-09T09:17:15;5.97;;;3.00;;
41305;SDS011;27051;50.376;19.152;2022-07-09T09:19:41;9.85;;;2.90;;
41305;SDS011;27051;50.376;19.152;2022-07-09T09:22:08;8.40;;;3.30;;
41305;SDS011;27051;50.376;19.152;2022-07-09T09:24:35;5.95;;;2.90;;
41305;SDS011;27051;50.376;19.152;2022-07-09T09:27:02;8.08;;;3.20;;
41305;SDS011;27051;50.376;19.152;2022-07-09T09:29:31;4.53;;;2.72;;
41305;SDS011;27051;50.376;19.152;2022-07-09T09:31:58;7.28;;;3.00;;
41305;SDS011;27051;50.376;19.152;2022-07-09T09:34:35;8.78;;;3.22;;
41305;SDS011;27051;50.376;19.152;2022-07-09T09:37:01;6.37;;;2.90;;
41305;SDS011;27051;50.376;19.152;2022-07-09T09:39:29;5.75;;;2.85;;
41305;SDS011;27051;50.376;19.152;2022-07-09T09:41:57;7.70;;;2.80;;
41305;SDS011;27051;50.376;19.152;2022-07-09T09:44:31;8.60;;;3.15;;
41305;SDS011;27051;50.376;19.152;2022-07-09T09:46:57;6.33;;;2.42;;
41305;SDS011;27051;50.376;19.152;2022-07-09T09:49:25;6.58;;;2.75;;
41305;SDS011;27051;50.376;19.152;2022-07-09T09:54:32;9.00;;;3.33;;
41305;SDS011;27051;50.376;19.152;2022-07-09T09:57:08;7.42;;;2.80;;
41305;SDS011;27051;50.376;19.152;2022-07-09T09:59:37;7.72;;;2.92;;
41305;SDS011;27051;50.376;19.152;2022-07-09T10:02:06;6.55;;;2.98;;
41305;SDS011;27051;50.376;19.152;2022-07-09T10:04:35;4.85;;;2.40;;
41305;SDS011;27051;50.376;19.152;2022-07-09T10:07:08;7.08;;;2.90;;
41305;SDS011;27051;50.376;19.152;2022-07-09T10:09:38;4.10;;;2.50;;
41305;SDS011;27051;50.376;19.152;2022-07-09T10:12:06;3.72;;;2.40;;
41305;SDS011;27051;50.376;19.152;2022-07-09T10:14:36;4.35;;;2.60;;
41305;SDS011;27051;50.376;19.152;2022-07-09T10:17:10;6.97;;;2.77;;
41305;SDS011;27051;50.376;19.152;2022-07-09T10:19:54;5.33;;;2.00;;
41305;SDS011;27051;50.376;19.152;2022-07-09T10:22:34;4.75;;;2.50;;
41305;SDS011;27051;50.376;19.152;2022-07-09T10:25:05;5.95;;;2.22;;
41305;SDS011;27051;50.376;19.152;2022-07-09T10:27:43;4.40;;;1.97;;
41305;SDS011;27051;50.376;19.152;2022-07-09T10:30:32;3.33;;;2.05;;
41305;SDS011;27051;50.376;19.152;2022-07-09T10:33:03;4.53;;;2.50;;
41305;SDS011;27051;50.376;19.152;2022-07-09T10:35:42;4.80;;;2.37;;
41305;SDS011;27051;50.376;19.152;2022-07-09T10:38:15;5.20;;;1.52;;
41305;SDS011;27051;50.376;19.152;2022-07-09T10:40:44;3.80;;;1.80;;
41305;SDS011;27051;50.376;19.152;2022-07-09T10:43:14;2.40;;;2.20;;
41305;SDS011;27051;50.376;19.152;2022-07-09T10:45:42;1.90;;;1.80;;
41305;SDS011;27051;50.376;19.152;2022-07-09T10:48:11;4.20;;;1.70;;
41305;SDS011;27051;50.376;19.152;2022-07-09T10:50:43;2.52;;;1.77;;
41305;SDS011;27051;50.376;19.152;2022-07-09T10:53:11;4.25;;;1.98;;
41305;SDS011;27051;50.376;19.152;2022-07-09T10:55:42;4.28;;;1.70;;
41305;SDS011;27051;50.376;19.152;2022-07-09T10:58:21;3.65;;;1.55;;
41305;SDS011;27051;50.376;19.152;2022-07-09T11:01:04;4.75;;;1.55;;
41305;SDS011;27051;50.376;19.152;2022-07-09T11:03:25;4.35;;;2.20;;
41305;SDS011;27051;50.376;19.152;2022-07-09T11:05:54;3.45;;;1.90;;
41305;SDS011;27051;50.376;19.152;2022-07-09T11:08:23;3.58;;;1.72;;
41305;SDS011;27051;50.376;19.152;2022-07-09T11:10:50;2.05;;;1.37;;
41305;SDS011;27051;50.376;19.152;2022-07-09T11:13:17;2.50;;;2.10;;
41305;SDS011;27051;50.376;19.152;2022-07-09T11:15:57;3.47;;;1.80;;
41305;SDS011;27051;50.376;19.152;2022-07-09T11:18:25;3.17;;;1.90;;
41305;SDS011;27051;50.376;19.152;2022-07-09T11:20:53;2.77;;;1.60;;
41305;SDS011;27051;50.376;19.152;2022-07-09T11:23:20;3.75;;;1.70;;
41305;SDS011;27051;50.376;19.152;2022-07-09T11:25:47;5.05;;;1.55;;
41305;SDS011;27051;50.376;19.152;2022-07-09T11:28:20;2.52;;;1.87;;
41305;SDS011;27051;50.376;19.152;2022-07-09T11:30:59;2.47;;;1.50;;
41305;SDS011;27051;50.376;19.152;2022-07-09T11:33:31;2.12;;;1.52;;
41305;SDS011;27051;50.376;19.152;2022-07-09T11:35:59;3.85;;;1.50;;
41305;SDS011;27051;50.376;19.152;2022-07-09T11:38:26;3.08;;;1.20;;
41305;SDS011;27051;50.376;19.152;2022-07-09T11:40:59;2.12;;;1.50;;
41305;SDS011;27051;50.376;19.152;2022-07-09T11:43:28;3.12;;;1.65;;
41305;SDS011;27051;50.376;19.152;2022-07-09T11:45:54;2.10;;;1.30;;
41305;SDS011;27051;50.376;19.152;2022-07-09T11:48:21;2.72;;;1.32;;
41305;SDS011;27051;50.376;19.152;2022-07-09T11:50:47;3.55;;;1.57;;
41305;SDS011;27051;50.376;19.152;2022-07-09T11:53:20;1.30;;;1.20;;
41305;SDS011;27051;50.376;19.152;2022-07-09T11:55:58;4.78;;;1.60;;
41305;SDS011;27051;50.376;19.152;2022-07-09T11:58:30;3.27;;;1.40;;
41305;SDS011;27051;50.376;19.152;2022-07-09T12:00:56;1.40;;;1.30;;
41305;SDS011;27051;50.376;19.152;2022-07-09T12:03:24;2.02;;;1.30;;
41305;SDS011;27051;50.376;19.152;2022-07-09T12:05:52;1.50;;;1.40;;
41305;SDS011;27051;50.376;19.152;2022-07-09T12:08:30;2.17;;;1.40;;
41305;SDS011;27051;50.376;19.152;2022-07-09T12:10:58;3.87;;;1.70;;
41305;SDS011;27051;50.376;19.152;2022-07-09T12:13:25;2.83;;;1.60;;
41305;SDS011;27051;50.376;19.152;2022-07-09T12:15:52;1.72;;;1.62;;
41305;SDS011;27051;50.376;19.152;2022-07-09T12:18:18;1.75;;;1.50;;
41305;SDS011;27051;50.376;19.152;2022-07-09T12:20:45;5.15;;;1.80;;
41305;SDS011;27051;50.376;19.152;2022-07-09T12:23:12;3.27;;;1.80;;
41305;SDS011;27051;50.376;19.152;2022-07-09T12:25:39;2.60;;;1.47;;
41305;SDS011;27051;50.376;19.152;2022-07-09T12:28:06;3.45;;;1.60;;
41305;SDS011;27051;50.376;19.152;2022-07-09T12:30:33;2.55;;;1.52;;
41305;SDS011;27051;50.376;19.152;2022-07-09T12:33:00;3.77;;;1.72;;
41305;SDS011;27051;50.376;19.152;2022-07-09T12:35:27;5.97;;;2.02;;
41305;SDS011;27051;50.376;19.152;2022-07-09T12:37:54;1.72;;;1.60;;
41305;SDS011;27051;50.376;19.152;2022-07-09T12:40:21;2.45;;;1.47;;
41305;SDS011;27051;50.376;19.152;2022-07-09T12:42:47;4.70;;;2.10;;
41305;SDS011;27051;50.376;19.152;2022-07-09T12:45:14;2.20;;;1.30;;
41305;SDS011;27051;50.376;19.152;2022-07-09T12:47:40;5.75;;;1.52;;
41305;SDS011;27051;50.376;19.152;2022-07-09T12:50:07;4.08;;;1.67;;
41305;SDS011;27051;50.376;19.152;2022-07-09T12:52:34;3.98;;;1.50;;
41305;SDS011;27051;50.376;19.152;2022-07-09T12:55:01;2.47;;;1.82;;
41305;SDS011;27051;50.376;19.152;2022-07-09T12:57:31;2.20;;;1.20;;
41305;SDS011;27051;50.376;19.152;2022-07-09T12:59:58;4.20;;;2.12;;
41305;SDS011;27051;50.376;19.152;2022-07-09T13:02:25;2.27;;;1.50;;
41305;SDS011;27051;50.376;19.152;2022-07-09T13:04:51;2.75;;;1.52;;
41305;SDS011;27051;50.376;19.152;2022-07-09T13:07:19;1.52;;;1.27;;
41305;SDS011;27051;50.376;19.152;2022-07-09T13:09:46;5.90;;;1.95;;
41305;SDS011;27051;50.376;19.152;2022-07-09T13:12:14;3.80;;;1.60;;
41305;SDS011;27051;50.376;19.152;2022-07-09T13:14:40;2.72;;;1.70;;
41305;SDS011;27051;50.376;19.152;2022-07-09T13:17:07;2.30;;;1.42;;
41305;SDS011;27051;50.376;19.152;2022-07-09T13:19:34;1.40;;;1.30;;
41305;SDS011;27051;50.376;19.152;2022-07-09T13:22:00;3.20;;;1.50;;
41305;SDS011;27051;50.376;19.152;2022-07-09T13:24:27;3.10;;;1.52;;
41305;SDS011;27051;50.376;19.152;2022-07-09T13:26:54;3.62;;;1.40;;
41305;SDS011;27051;50.376;19.152;2022-07-09T13:29:20;3.00;;;1.45;;
41305;SDS011;27051;50.376;19.152;2022-07-09T13:31:47;2.20;;;1.60;;
41305;SDS011;27051;50.376;19.152;2022-07-09T13:34:14;4.75;;;1.85;;
41305;SDS011;27051;50.376;19.152;2022-07-09T13:36:40;2.83;;;1.60;;
41305;SDS011;27051;50.376;19.152;2022-07-09T13:39:07;3.70;;;1.72;;
41305;SDS011;27051;50.376;19.152;2022-07-09T13:41:34;2.87;;;1.40;;
41305;SDS011;27051;50.376;19.152;2022-07-09T13:44:00;3.15;;;1.75;;
41305;SDS011;27051;50.376;19.152;2022-07-09T13:46:27;1.90;;;1.30;;
41305;SDS011;27051;50.376;19.152;2022-07-09T13:48:54;3.08;;;1.50;;
41305;SDS011;27051;50.376;19.152;2022-07-09T13:51:21;3.40;;;1.60;;
41305;SDS011;27051;50.376;19.152;2022-07-09T13:53:48;4.28;;;1.70;;
41305;SDS011;27051;50.376;19.152;2022-07-09T13:56:14;1.55;;;1.40;;
41305;SDS011;27051;50.376;19.152;2022-07-09T13:58:41;2.85;;;1.70;;
41305;SDS011;27051;50.376;19.152;2022-07-09T14:01:07;1.98;;;1.70;;
41305;SDS011;27051;50.376;19.152;2022-07-09T14:03:34;2.40;;;1.72;;
41305;SDS011;27051;50.376;19.152;2022-07-09T14:06:01;2.25;;;1.80;;
41305;SDS011;27051;50.376;19.152;2022-07-09T14:08:28;2.30;;;1.50;;
41305;SDS011;27051;50.376;19.152;2022-07-09T14:10:54;3.10;;;1.77;;
41305;SDS011;27051;50.376;19.152;2022-07-09T14:13:21;2.02;;;1.42;;
41305;SDS011;27051;50.376;19.152;2022-07-09T14:15:47;1.47;;;1.37;;
41305;SDS011;27051;50.376;19.152;2022-07-09T14:18:14;4.08;;;1.50;;
41305;SDS011;27051;50.376;19.152;2022-07-09T14:20:40;3.65;;;1.55;;
41305;SDS011;27051;50.376;19.152;2022-07-09T14:23:07;3.42;;;1.37;;
41305;SDS011;27051;50.376;19.152;2022-07-09T14:25:34;4.37;;;1.60;;
41305;SDS011;27051;50.376;19.152;2022-07-09T14:28:00;1.57;;;1.40;;
41305;SDS011;27051;50.376;19.152;2022-07-09T14:30:27;3.52;;;2.10;;
41305;SDS011;27051;50.376;19.152;2022-07-09T14:32:54;4.90;;;1.82;;
41305;SDS011;27051;50.376;19.152;2022-07-09T14:35:20;2.85;;;1.55;;